Time;durP1;ratioP1;P1;durP2;ratioP2;P2;SDS_P1;SDS_P2;PMS_P1;PMS_P2;Temp;Humidity;BMP_temperature;BMP_pressure;BME280_temperature;BME280_humidity;BME280_pressure;Samples;Min_cycle;Max_cycle;Signal;HPM_P1;HPM_P2
2023/03/20 00:00:36;;;;;;;13.55;6.10;;;;;;;11.56;66.22;102030.03;5064721;28;20039;-41
2023/03/20 00:03:02;;;;;;;14.07;6.65;;;;;;;11.45;67.27;102033.19;5084183;28;20042;-39
2023/03/20 00:05:29;;;;;;;13.80;6.43;;;;;;;11.56;66.76;102022.19;5080750;28;20025;-42
2023/03/20 00:07:56;;;;;;;13.65;5.95;;;;;;;11.53;66.59;102022.09;5083763;28;20037;-40
2023/03/20 00:10:27;;;;;;;12.82;6.40;;;;;;;11.43;67.38;102019.19;5078372;28;20028;-38
2023/03/20 00:12:52;;;;;;;16.38;6.65;;;;;;;11.42;66.68;102028.75;5081739;28;20036;-39
2023/03/20 00:15:17;;;;;;;11.75;6.20;;;;;;;11.45;66.73;102044.53;5078955;28;20073;-41
2023/03/20 00:17:43;;;;;;;16.38;6.55;;;;;;;11.15;67.47;102046.25;5082877;28;20036;-40
2023/03/20 00:20:14;;;;;;;13.57;6.00;;;;;;;11.08;67.40;102054.72;5077903;28;20156;-40
2023/03/20 00:22:39;;;;;;;15.13;6.55;;;;;;;11.33;66.87;102065.06;5082438;28;20328;-37
2023/03/20 00:25:05;;;;;;;11.82;6.40;;;;;;;11.31;67.30;102067.63;5079082;28;20058;-40
2023/03/20 00:27:31;;;;;;;16.05;6.43;;;;;;;11.43;66.52;102071.41;5070792;28;20055;-40
2023/03/20 00:29:57;;;;;;;12.63;5.97;;;;;;;11.63;66.35;102065.06;5061602;28;20060;-40
2023/03/20 00:32:22;;;;;;;15.63;6.10;;;;;;;11.43;66.47;102061.88;5057096;28;22428;-40
2023/03/20 00:34:47;;;;;;;15.82;6.68;;;;;;;11.52;66.32;102056.91;5061606;28;20033;-39
2023/03/20 00:37:13;;;;;;;13.30;6.32;;;;;;;11.58;66.06;102045.75;5058826;28;20299;-42
2023/03/20 00:39:39;;;;;;;12.82;6.38;;;;;;;11.65;65.88;102038.09;5062559;28;20040;-40
2023/03/20 00:42:06;;;;;;;17.27;6.50;;;;;;;11.62;65.72;102042.38;5062749;28;20029;-41
2023/03/20 00:44:37;;;;;;;14.77;6.38;;;;;;;11.55;65.65;102046.53;5078567;28;20111;-41
2023/03/20 00:47:10;;;;;;;16.08;6.85;;;;;;;11.43;65.68;102051.41;5082183;28;20032;-42
2023/03/20 00:49:37;;;;;;;12.00;6.07;;;;;;;11.62;65.23;102038.03;5060266;28;21982;-40
2023/03/20 00:52:03;;;;;;;17.35;6.57;;;;;;;11.50;65.45;102028.97;5082140;28;20028;-40
2023/03/20 00:54:29;;;;;;;15.77;6.65;;;;;;;11.48;65.25;102023.69;5079907;28;20034;-43
2023/03/20 00:56:59;;;;;;;19.25;7.00;;;;;;;11.52;65.21;102022.09;5084308;28;20032;-40
2023/03/20 00:59:30;;;;;;;14.43;6.75;;;;;;;11.40;65.13;102014.78;5080456;28;20565;-39
2023/03/20 01:01:55;;;;;;;15.48;6.65;;;;;;;11.39;65.05;102020.84;5084585;28;20065;-39
2023/03/20 01:04:20;;;;;;;16.08;6.70;;;;;;;11.47;65.12;102019.31;5079853;28;20028;-39
2023/03/20 01:06:46;;;;;;;14.43;6.05;;;;;;;11.46;65.10;102008.84;5084536;28;20055;-40
2023/03/20 01:09:11;;;;;;;12.43;5.63;;;;;;;11.56;64.64;102013.47;5080331;28;20057;-39
2023/03/20 01:11:39;;;;;;;13.45;5.72;;;;;;;11.56;64.53;102013.47;5082215;28;20079;-39
2023/03/20 01:14:10;;;;;;;11.60;5.78;;;;;;;11.52;64.51;102022.09;5079351;28;20479;-41
2023/03/20 01:16:36;;;;;;;11.35;6.20;;;;;;;11.30;64.91;102036.25;5083188;28;20044;-41
2023/03/20 01:19:01;;;;;;;12.75;6.15;;;;;;;11.12;64.79;102049.63;5083524;28;20087;-40
2023/03/20 01:21:26;;;;;;;14.95;6.10;;;;;;;11.19;65.06;102049.00;5080057;28;20024;-41
2023/03/20 01:23:51;;;;;;;17.95;6.88;;;;;;;11.04;65.30;102058.09;5086495;28;20036;-38
2023/03/20 01:26:35;;;;;;;14.35;6.90;;;;;;;10.85;65.66;102065.38;5082536;28;20056;-39
2023/03/20 01:29:00;;;;;;;16.60;6.90;;;;;;;10.83;65.79;102079.19;5085238;28;20067;-39
2023/03/20 01:31:26;;;;;;;20.42;6.88;;;;;;;11.12;65.43;102075.75;5080888;28;20059;-40
2023/03/20 01:33:51;;;;;;;15.65;7.20;;;;;;;11.22;64.96;102072.56;5084775;28;20111;-38
2023/03/20 01:36:20;;;;;;;12.85;6.50;;;;;;;11.29;64.75;102066.69;5081328;28;20036;-39
2023/03/20 01:38:50;;;;;;;16.58;7.10;;;;;;;11.16;65.15;102067.16;5084458;28;20075;-39
2023/03/20 01:41:16;;;;;;;14.68;7.22;;;;;;;10.79;65.70;102072.09;5078784;28;20043;-43
2023/03/20 01:43:44;;;;;;;17.52;7.13;;;;;;;11.11;65.54;102067.84;5083416;28;20119;-39
2023/03/20 01:46:24;;;;;;;14.57;6.85;;;;;;;11.25;64.91;102067.44;5077905;28;20067;-42
2023/03/20 01:48:50;;;;;;;14.13;6.70;;;;;;;11.32;64.64;102058.94;5081575;28;20509;-39
2023/03/20 01:51:27;;;;;;;13.32;7.10;;;;;;;11.47;64.30;102052.38;5077410;28;20114;-40
2023/03/20 01:54:06;;;;;;;16.02;7.25;;;;;;;11.43;64.78;102053.16;5081863;28;20024;-41
2023/03/20 01:56:36;;;;;;;14.35;7.00;;;;;;;11.56;64.09;102052.66;5078021;28;20032;-39
2023/03/20 01:59:12;;;;;;;15.63;7.10;;;;;;;11.63;64.02;102057.22;5079546;28;20036;-39
2023/03/20 02:01:38;;;;;;;18.73;7.47;;;;;;;11.45;64.29;102059.31;5077772;28;20089;-39
2023/03/20 02:04:05;;;;;;;17.90;7.03;;;;;;;11.66;64.12;102049.44;5081711;28;20028;-42
2023/03/20 02:06:31;;;;;;;13.25;6.55;;;;;;;11.58;63.98;102038.81;5085026;28;20024;-39
2023/03/20 02:08:56;;;;;;;17.27;7.03;;;;;;;11.62;63.59;102032.81;5084965;28;20109;-39
2023/03/20 02:11:24;;;;;;;14.40;7.10;;;;;;;11.70;63.76;102030.41;5080805;28;20111;-39
2023/03/20 02:13:53;;;;;;;14.18;7.30;;;;;;;11.50;63.94;102018.53;5084795;28;20406;-39
2023/03/20 02:16:19;;;;;;;17.73;7.18;;;;;;;11.59;63.74;102014.44;5081289;28;20255;-39
2023/03/20 02:18:47;;;;;;;14.77;7.18;;;;;;;11.67;63.31;102012.03;5085153;28;20065;-40
2023/03/20 02:21:31;;;;;;;18.42;7.95;;;;;;;11.53;63.61;102013.38;5080484;28;20398;-40
2023/03/20 02:24:15;;;;;;;16.02;7.70;;;;;;;11.56;63.67;102000.41;5084973;28;20167;-39
2023/03/20 02:27:05;;;;;;;16.13;7.45;;;;;;;11.50;63.50;102002.88;5080712;28;20481;-39
2023/03/20 02:29:36;;;;;;;16.25;7.53;;;;;;;11.35;63.96;101991.13;5081157;28;20032;-39
2023/03/20 02:32:17;;;;;;;20.13;8.65;;;;;;;11.31;64.17;101983.19;5084553;28;20055;-39
2023/03/20 02:34:54;;;;;;;18.67;8.55;;;;;;;10.99;65.18;101988.38;5061016;28;20057;-39
2023/03/20 02:37:56;;;;;;;19.52;9.23;;;;;;;11.04;65.22;102003.28;5061147;28;20085;-40
2023/03/20 02:40:39;;;;;;;22.27;9.27;;;;;;;10.80;65.44;102000.81;5061474;28;20120;-38
2023/03/20 02:43:19;;;;;;;19.95;8.90;;;;;;;11.18;65.00;102001.94;5059474;28;20027;-38
2023/03/20 02:45:56;;;;;;;20.20;8.80;;;;;;;11.15;64.57;102002.75;5064544;28;20036;-39
2023/03/20 02:48:42;;;;;;;16.33;9.38;;;;;;;11.28;64.56;102001.41;5071877;28;20040;-40
2023/03/20 02:51:27;;;;;;;17.08;9.10;;;;;;;11.44;63.98;102000.97;5085502;28;20516;-35
2023/03/20 02:54:34;;;;;;;16.63;8.60;;;;;;;11.48;63.68;101991.47;5082919;28;20064;-39
2023/03/20 02:57:22;;;;;;;16.15;9.10;;;;;;;11.36;64.33;101989.41;5047565;28;20405;-38
2023/03/20 02:59:59;;;;;;;19.30;9.25;;;;;;;11.34;63.99;101986.75;5062948;28;20032;-38
2023/03/20 03:02:36;;;;;;;18.85;9.27;;;;;;;11.31;64.12;101976.25;5079240;28;20482;-39
2023/03/20 03:05:10;;;;;;;19.73;9.98;;;;;;;11.26;64.21;101982.19;5068597;28;20028;-38
2023/03/20 03:07:40;;;;;;;20.70;9.65;;;;;;;11.31;64.12;101984.06;5080212;28;20059;-40
2023/03/20 03:10:14;;;;;;;20.65;10.00;;;;;;;11.20;64.36;101979.41;5084045;28;20088;-45
2023/03/20 03:12:43;;;;;;;17.38;9.38;;;;;;;11.48;63.84;101976.69;5079337;28;20420;-36
2023/03/20 03:15:38;;;;;;;20.17;10.05;;;;;;;11.32;64.00;101970.19;5080084;28;20028;-39
2023/03/20 03:18:06;;;;;;;22.08;10.55;;;;;;;11.30;64.29;101976.19;5080492;28;20051;-47
2023/03/20 03:20:38;;;;;;;18.65;10.13;;;;;;;11.27;64.36;101974.41;5083699;28;20545;-44
2023/03/20 03:23:05;;;;;;;17.55;10.13;;;;;;;11.43;63.95;101965.25;5079478;28;20402;-43
2023/03/20 03:25:38;;;;;;;16.85;10.10;;;;;;;11.43;63.75;101951.31;5083262;28;20115;-39
2023/03/20 03:28:14;;;;;;;17.85;10.02;;;;;;;11.27;64.08;101952.63;5084232;28;20040;-40
2023/03/20 03:30:42;;;;;;;23.77;11.00;;;;;;;11.33;64.13;101958.91;5079872;28;20465;-42
2023/03/20 03:33:16;;;;;;;20.50;10.40;;;;;;;11.25;64.25;101957.81;5080875;28;20032;-39
2023/03/20 03:35:42;;;;;;;;;;;;;;;11.20;64.76;101956.78;5085374;28;20564;-39
2023/03/20 03:38:13;;;;;;;19.10;10.45;;;;;;;11.21;64.86;101958.56;5080723;28;20002;-39
2023/03/20 03:41:01;;;;;;;18.08;10.48;;;;;;;11.27;64.35;101948.28;5083496;28;20044;-43
2023/03/20 03:43:37;;;;;;;17.20;10.18;;;;;;;11.38;64.11;101944.25;5080561;28;20387;-41
2023/03/20 03:46:02;;;;;;;20.58;10.73;;;;;;;11.21;64.53;101942.03;5084680;28;20576;-39
2023/03/20 03:48:43;;;;;;;22.52;10.68;;;;;;;11.20;64.90;101940.25;5082492;28;20166;-38
2023/03/20 03:51:13;;;;;;;20.48;10.40;;;;;;;11.10;64.72;101938.22;5081710;28;20051;-41
2023/03/20 03:53:47;;;;;;;20.38;10.10;;;;;;;11.26;64.64;101930.84;5084184;28;20591;-39
2023/03/20 03:56:19;;;;;;;20.27;10.40;;;;;;;11.25;64.47;101934.31;5080287;28;20048;-39
2023/03/20 03:58:49;;;;;;;19.60;10.23;;;;;;;11.40;64.09;101932.09;5083444;28;20039;-40
2023/03/20 04:01:17;;;;;;;19.20;10.48;;;;;;;11.22;64.93;101922.91;5060389;28;20440;-39
2023/03/20 04:03:48;;;;;;;18.45;9.85;;;;;;;11.24;64.55;101927.31;5086332;28;20089;-39
2023/03/20 04:06:15;;;;;;;20.08;10.15;;;;;;;11.10;65.05;101928.66;5084355;28;20028;-40
2023/03/20 04:08:42;;;;;;;20.08;10.70;;;;;;;11.32;64.42;101936.25;5087523;28;20088;-39
2023/03/20 04:11:34;;;;;;;19.27;9.82;;;;;;;11.22;64.77;101936.81;5082917;28;20028;-41
2023/03/20 04:14:00;;;;;;;17.13;10.25;;;;;;;11.17;64.79;101933.19;5078601;28;20409;-41
2023/03/20 04:16:25;;;;;;;19.52;9.63;;;;;;;11.28;64.61;101939.59;5078995;28;20028;-40
2023/03/20 04:18:51;;;;;;;20.05;10.57;;;;;;;11.28;64.67;101938.75;5083108;28;20038;-40
2023/03/20 04:21:17;;;;;;;20.13;10.93;;;;;;;11.18;64.88;101941.91;5079031;28;20027;-39
2023/03/20 04:23:43;;;;;;;18.63;10.45;;;;;;;11.27;64.73;101940.47;5082293;28;20031;-42
2023/03/20 04:26:09;;;;;;;20.08;10.82;;;;;;;11.16;65.06;101949.69;5078157;28;20028;-42
2023/03/20 04:28:34;;;;;;;18.13;10.20;;;;;;;11.22;65.35;101949.88;5083000;28;20039;-41
2023/03/20 04:31:01;;;;;;;17.70;10.88;;;;;;;11.28;64.94;101934.38;5082257;28;20664;-39
2023/03/20 04:33:27;;;;;;;16.77;10.27;;;;;;;11.29;64.86;101927.44;5078055;28;20066;-38
2023/03/20 04:35:53;;;;;;;20.60;10.88;;;;;;;11.05;65.29;101925.03;5082109;28;20032;-39
2023/03/20 04:38:20;;;;;;;20.50;10.23;;;;;;;11.15;65.23;101923.56;5077491;28;20081;-41
2023/03/20 04:40:46;;;;;;;24.58;11.18;;;;;;;11.04;65.48;101917.19;5082070;28;20039;-39
2023/03/20 04:43:12;;;;;;;21.52;11.30;;;;;;;11.30;64.60;101916.16;5077801;28;20383;-40
2023/03/20 04:45:38;;;;;;;23.98;11.27;;;;;;;11.34;64.67;101910.19;5081907;28;20371;-40
2023/03/20 04:48:04;;;;;;;20.42;10.68;;;;;;;11.22;65.20;101913.31;5079174;28;20036;-39
2023/03/20 04:50:29;;;;;;;21.92;11.55;;;;;;;11.12;65.20;101906.09;5082803;28;20039;-39
2023/03/20 04:52:54;;;;;;;20.25;11.63;;;;;;;11.07;65.46;101906.81;5084064;28;20038;-39
2023/03/20 04:55:21;;;;;;;21.00;11.48;;;;;;;11.10;65.80;101904.31;5080450;28;20032;-39
2023/03/20 04:57:46;;;;;;;20.73;10.88;;;;;;;11.10;65.75;101896.47;5084383;28;20067;-40
2023/03/20 05:00:12;;;;;;;22.23;11.00;;;;;;;11.10;66.14;101896.47;5082813;28;20048;-40
2023/03/20 05:02:37;;;;;;;20.88;11.25;;;;;;;11.18;65.53;101893.22;5085394;28;20059;-39
2023/03/20 05:05:03;;;;;;;21.60;11.02;;;;;;;11.15;65.73;101894.88;5083128;28;20028;-42
2023/03/20 05:07:29;;;;;;;21.25;11.13;;;;;;;11.14;65.41;101898.31;5079312;28;20041;-40
2023/03/20 05:09:54;;;;;;;18.90;11.57;;;;;;;11.26;65.43;101896.91;5082218;28;20120;-40
2023/03/20 05:12:20;;;;;;;20.67;11.63;;;;;;;11.33;65.13;101901.47;5075423;28;20061;-38
2023/03/20 05:14:45;;;;;;;23.85;11.57;;;;;;;11.14;65.53;101904.41;5068222;28;20552;-39
2023/03/20 05:17:10;;;;;;;20.23;10.57;;;;;;;11.22;65.16;101902.88;5061481;28;20111;-41
2023/03/20 05:19:37;;;;;;;20.33;10.40;;;;;;;11.33;65.51;101898.88;5084108;28;20035;-40
2023/03/20 05:22:03;;;;;;;20.55;11.13;;;;;;;11.29;65.14;101911.75;5081937;28;20046;-46
2023/03/20 05:24:28;;;;;;;20.90;11.02;;;;;;;11.30;65.15;101901.38;5078486;28;20040;-39
2023/03/20 05:26:54;;;;;;;23.23;11.82;;;;;;;11.16;65.81;101909.69;5081649;28;20033;-43
2023/03/20 05:29:19;;;;;;;23.92;11.02;;;;;;;11.35;65.16;101899.75;5077865;28;20032;-39
2023/03/20 05:31:45;;;;;;;22.20;10.88;;;;;;;11.28;65.35;101908.28;5081157;28;20123;-36
2023/03/20 05:34:11;;;;;;;23.00;10.95;;;;;;;11.19;65.45;101912.38;5078759;28;20040;-39
2023/03/20 05:36:36;;;;;;;22.08;10.45;;;;;;;11.39;64.85;101905.97;5083704;28;20036;-42
2023/03/20 05:39:02;;;;;;;22.75;10.75;;;;;;;11.22;65.85;101910.72;5083214;28;20024;-41
2023/03/20 05:41:27;;;;;;;21.10;10.52;;;;;;;11.28;65.67;101912.63;5077787;28;20032;-39
2023/03/20 05:43:52;;;;;;;20.58;11.23;;;;;;;11.22;65.68;101915.94;5082046;28;20104;-39
2023/03/20 05:46:18;;;;;;;19.40;10.57;;;;;;;11.17;66.24;101911.44;5078133;28;20069;-40
2023/03/20 05:48:43;;;;;;;19.85;9.95;;;;;;;11.25;65.53;101912.53;5083027;28;20529;-39
2023/03/20 05:51:08;;;;;;;23.02;10.57;;;;;;;11.37;65.32;101911.16;5079763;28;20040;-39
2023/03/20 05:53:34;;;;;;;19.88;10.43;;;;;;;11.21;66.04;101906.38;5084596;28;20028;-39
2023/03/20 05:55:59;;;;;;;21.15;10.55;;;;;;;10.93;66.49;101917.75;5084648;28;20028;-39
2023/03/20 05:58:24;;;;;;;27.35;11.07;;;;;;;10.95;66.36;101920.41;5079676;28;20177;-38
2023/03/20 06:00:49;;;;;;;22.60;10.55;;;;;;;10.89;66.59;101917.63;5083940;28;20063;-41
2023/03/20 06:03:15;;;;;;;22.30;10.75;;;;;;;11.10;66.02;101920.81;5080234;28;20036;-40
2023/03/20 06:05:41;;;;;;;23.83;10.85;;;;;;;11.05;66.51;101916.31;5085596;28;20043;-39
2023/03/20 06:08:06;;;;;;;21.65;9.68;;;;;;;10.84;66.64;101925.31;5081659;28;20169;-41
2023/03/20 06:10:31;;;;;;;20.30;10.20;;;;;;;11.10;66.46;101927.78;5085728;28;20051;-40
2023/03/20 06:12:59;;;;;;;20.98;9.95;;;;;;;11.08;66.18;101932.06;5084616;28;20379;-38
2023/03/20 06:15:28;;;;;;;20.17;9.85;;;;;;;11.33;65.33;101930.19;5079406;28;20039;-41
2023/03/20 06:17:55;;;;;;;18.25;9.35;;;;;;;11.33;65.76;101932.81;5083339;28;20032;-39
2023/03/20 06:20:20;;;;;;;18.58;9.55;;;;;;;11.34;65.28;101942.38;5078924;28;20032;-41
2023/03/20 06:22:45;;;;;;;20.58;9.65;;;;;;;11.33;65.16;101932.81;5081579;28;20128;-39
2023/03/20 06:25:11;;;;;;;19.48;9.20;;;;;;;11.15;65.97;101942.75;5078925;28;20039;-39
2023/03/20 06:27:37;;;;;;;23.38;9.80;;;;;;;11.33;65.32;101940.63;5081969;28;20032;-43
2023/03/20 06:30:03;;;;;;;17.00;8.93;;;;;;;11.45;65.19;101949.63;5063031;28;20516;-41
2023/03/20 06:32:28;;;;;;;20.02;9.05;;;;;;;11.11;65.71;101939.97;5077144;28;20051;-39
2023/03/20 06:34:54;;;;;;;16.88;8.27;;;;;;;11.51;65.21;101947.19;5080614;28;20036;-39
2023/03/20 06:37:19;;;;;;;18.63;8.13;;;;;;;11.38;65.01;101944.25;5075360;28;20435;-40
2023/03/20 06:39:45;;;;;;;18.40;8.32;;;;;;;11.46;64.88;101944.47;5080793;28;20032;-41
2023/03/20 06:42:11;;;;;;;16.73;7.82;;;;;;;11.63;64.10;101943.16;5076793;28;20489;-39
2023/03/20 06:44:37;;;;;;;15.13;7.70;;;;;;;11.52;63.84;101948.97;5080274;28;20409;-39
2023/03/20 06:47:03;;;;;;;19.20;7.70;;;;;;;11.53;64.03;101950.69;5080626;28;20034;-39
2023/03/20 06:49:28;;;;;;;19.25;7.20;;;;;;;11.17;64.50;101948.88;5080018;28;20035;-39
2023/03/20 06:51:53;;;;;;;18.52;7.32;;;;;;;11.36;63.96;101953.75;5084270;28;20383;-41
2023/03/20 06:54:19;;;;;;;14.75;7.13;;;;;;;11.31;64.42;101950.13;5079614;28;20036;-39
2023/03/20 06:56:45;;;;;;;20.77;7.13;;;;;;;11.59;63.66;101956.09;5084767;28;20036;-38
2023/03/20 06:59:10;;;;;;;17.08;7.05;;;;;;;11.57;63.66;101958.69;5080753;28;20056;-38
2023/03/20 07:01:36;;;;;;;15.95;6.93;;;;;;;11.56;63.23;101950.78;5084370;28;20068;-42
2023/03/20 07:04:01;;;;;;;14.10;6.25;;;;;;;11.43;64.46;101956.53;5082052;28;20484;-39
2023/03/20 07:06:27;;;;;;;13.93;6.30;;;;;;;11.46;64.47;101954.03;5080130;28;20470;-40
2023/03/20 07:08:52;;;;;;;13.13;6.72;;;;;;;11.48;64.13;101953.19;5083957;28;20063;-39
2023/03/20 07:11:17;;;;;;;13.30;6.13;;;;;;;11.70;63.72;101952.06;5079218;28;20044;-39
2023/03/20 07:13:43;;;;;;;14.27;6.55;;;;;;;11.68;63.53;101953.72;5083595;28;20056;-40
2023/03/20 07:16:09;;;;;;;15.77;6.50;;;;;;;11.60;62.86;101944.78;5079963;28;20024;-43
2023/03/20 07:18:34;;;;;;;14.82;6.50;;;;;;;11.71;63.11;101946.00;5084035;28;20036;-37
2023/03/20 07:21:02;;;;;;;14.88;6.50;;;;;;;11.75;63.17;101947.84;5083515;28;20020;-40
2023/03/20 07:23:29;;;;;;;14.35;6.18;;;;;;;11.50;63.48;101956.75;5078490;28;20025;-41
2023/03/20 07:25:55;;;;;;;14.25;5.95;;;;;;;11.65;63.12;101954.53;5083282;28;20028;-37
2023/03/20 07:28:20;;;;;;;12.95;5.80;;;;;;;11.85;62.98;101960.28;5079504;28;20069;-39
2023/03/20 07:30:45;;;;;;;14.30;5.80;;;;;;;11.73;62.79;101966.09;5082567;28;20529;-43
2023/03/20 07:33:11;;;;;;;14.30;5.07;;;;;;;11.57;64.14;101966.50;5078923;28;20032;-39
2023/03/20 07:35:38;;;;;;;13.85;5.35;;;;;;;11.77;63.85;101964.47;5082211;28;20032;-39
2023/03/20 07:38:03;;;;;;;15.63;5.45;;;;;;;11.86;63.40;101956.84;5080078;28;20124;-48
2023/03/20 07:40:29;;;;;;;14.60;5.90;;;;;;;11.74;64.42;101966.97;5082513;28;20127;-38
2023/03/20 07:42:54;;;;;;;14.48;5.05;;;;;;;11.38;65.72;101967.75;5083307;28;20039;-41
2023/03/20 07:45:20;;;;;;;13.50;5.88;;;;;;;11.27;66.29;101965.69;5061040;28;20054;-36
2023/03/20 07:47:47;;;;;;;15.55;5.78;;;;;;;11.57;65.84;101969.13;5083320;28;20036;-39
2023/03/20 07:50:13;;;;;;;14.07;5.63;;;;;;;11.87;65.22;101970.78;5079787;28;20036;-39
2023/03/20 07:52:38;;;;;;;15.73;5.47;;;;;;;11.66;66.00;101969.34;5083761;28;20040;-38
2023/03/20 07:55:03;;;;;;;18.52;6.00;;;;;;;11.47;66.84;101974.03;5083340;28;20051;-40
2023/03/20 07:57:30;;;;;;;13.38;5.60;;;;;;;11.54;66.46;101976.88;5080800;28;20062;-42
2023/03/20 07:59:55;;;;;;;16.33;5.20;;;;;;;11.67;66.32;101978.06;5082440;28;20502;-40
2023/03/20 08:02:20;;;;;;;14.10;4.95;;;;;;;11.42;68.33;101973.91;5060362;28;20047;-39
2023/03/20 08:04:46;;;;;;;16.30;5.07;;;;;;;11.51;68.10;101978.53;5065256;28;20066;-39
2023/03/20 08:07:11;;;;;;;14.25;5.22;;;;;;;11.26;68.40;101980.47;5080689;28;20032;-39
2023/03/20 08:09:37;;;;;;;12.63;4.70;;;;;;;11.33;68.40;101973.69;5083639;28;20063;-42
2023/03/20 08:12:03;;;;;;;14.95;5.60;;;;;;;11.38;68.57;101972.97;5084471;28;20047;-38
2023/03/20 08:14:28;;;;;;;13.75;5.07;;;;;;;11.25;68.72;101978.69;5079788;28;20556;-37
2023/03/20 08:16:54;;;;;;;9.75;4.60;;;;;;;11.45;68.96;101978.34;5084004;28;20036;-41
2023/03/20 08:19:20;;;;;;;15.27;5.20;;;;;;;11.64;68.54;101978.00;5063120;28;20367;-39
2023/03/20 08:21:45;;;;;;;10.98;5.10;;;;;;;11.86;68.32;101977.75;5069200;28;20051;-40
2023/03/20 08:24:11;;;;;;;11.38;4.63;;;;;;;11.94;67.96;101971.00;5065527;28;20032;-39
2023/03/20 08:26:36;;;;;;;10.07;4.50;;;;;;;11.66;68.86;101968.47;5067748;28;20033;-40
2023/03/20 08:29:02;;;;;;;13.27;4.68;;;;;;;11.74;68.65;101973.09;5083918;28;20032;-39
2023/03/20 08:31:27;;;;;;;16.23;5.10;;;;;;;11.52;69.44;101983.78;5060569;28;20036;-40
2023/03/20 08:33:55;;;;;;;13.65;5.00;;;;;;;11.59;69.39;101971.75;5085170;28;20043;-39
2023/03/20 08:36:20;;;;;;;13.55;5.10;;;;;;;11.47;69.33;101974.94;5080044;28;20097;-43
2023/03/20 08:38:48;;;;;;;15.88;5.35;;;;;;;11.61;69.21;101964.84;5086043;28;20044;-38
2023/03/20 08:41:13;;;;;;;14.88;5.40;;;;;;;12.14;67.99;101974.97;5083220;28;20035;-39
2023/03/20 08:43:39;;;;;;;12.77;5.43;;;;;;;11.81;68.45;101971.53;5087740;28;20053;-41
2023/03/20 08:46:04;;;;;;;14.98;5.40;;;;;;;11.60;69.48;101968.31;5084048;28;20487;-40
2023/03/20 08:48:30;;;;;;;14.57;5.57;;;;;;;12.07;68.45;101967.84;5087167;28;20486;-40
2023/03/20 08:50:55;;;;;;;15.15;5.60;;;;;;;11.81;68.21;101963.69;5085666;28;20054;-41
2023/03/20 08:53:21;;;;;;;14.23;5.40;;;;;;;11.58;68.88;101968.28;5080415;28;20570;-39
2023/03/20 08:55:50;;;;;;;15.93;5.80;;;;;;;12.10;67.93;101960.06;5080334;28;20043;-40
2023/03/20 08:58:17;;;;;;;12.65;5.20;;;;;;;12.19;67.35;101960.31;5069757;28;20453;-40
2023/03/20 09:00:43;;;;;;;12.55;5.15;;;;;;;12.46;67.07;101957.44;5084328;28;20032;-39
2023/03/20 09:03:13;;;;;;;11.77;5.50;;;;;;;12.03;68.25;101959.88;5081525;28;20083;-40
2023/03/20 09:05:40;;;;;;;13.40;5.57;;;;;;;12.36;67.92;101954.56;5064106;28;20469;-40
2023/03/20 09:08:05;;;;;;;14.05;5.97;;;;;;;12.10;68.79;101947.00;5080729;28;20064;-39
2023/03/20 09:10:31;;;;;;;12.45;5.90;;;;;;;12.22;68.33;101958.59;5084936;28;20481;-40
2023/03/20 09:12:56;;;;;;;14.20;6.15;;;;;;;12.32;68.19;101960.59;5084778;28;20059;-39
2023/03/20 09:15:22;;;;;;;15.63;5.90;;;;;;;12.53;67.80;101969.81;5064120;28;20028;-39
2023/03/20 09:17:47;;;;;;;15.13;6.82;;;;;;;12.46;67.40;101967.91;5065645;28;20567;-41
2023/03/20 09:20:12;;;;;;;13.98;7.05;;;;;;;12.11;68.44;101963.56;5061066;28;20033;-48
2023/03/20 09:22:40;;;;;;;19.35;7.32;;;;;;;12.30;67.97;101968.41;5065339;28;20036;-42
2023/03/20 09:25:06;;;;;;;16.58;7.13;;;;;;;12.42;67.70;101963.44;5063030;28;20398;-40
2023/03/20 09:27:31;;;;;;;15.90;7.18;;;;;;;12.12;68.41;101960.13;5064354;28;20040;-42
2023/03/20 09:29:57;;;;;;;16.70;7.97;;;;;;;11.94;68.87;101965.78;5064445;28;20036;-38
2023/03/20 09:32:22;;;;;;;14.88;7.65;;;;;;;11.69;69.80;101958.13;5059933;28;20044;-37
2023/03/20 09:34:48;;;;;;;23.92;8.60;;;;;;;11.64;70.46;101970.19;5065709;28;20056;-38
2023/03/20 09:37:13;;;;;;;19.77;8.43;;;;;;;11.96;69.83;101971.00;5058672;28;20040;-39
2023/03/20 09:39:38;;;;;;;15.77;8.60;;;;;;;11.70;70.38;101960.78;5061981;28;20403;-36
2023/03/20 09:42:35;;;;;;;17.92;8.77;;;;;;;11.61;70.64;101967.47;5063171;28;20039;-39
2023/03/20 09:45:23;;;;;;;17.63;9.18;;;;;;;11.65;70.59;101969.31;5059065;28;20403;-38
2023/03/20 09:48:06;;;;;;;21.13;9.52;;;;;;;12.12;69.92;101971.47;5027320;28;20116;-39
2023/03/20 09:50:42;;;;;;;20.02;9.68;;;;;;;12.14;69.15;101969.75;5059902;28;20079;-43
2023/03/20 09:53:26;;;;;;;21.05;9.65;;;;;;;11.63;70.16;101964.06;5056712;28;20039;-36
2023/03/20 09:55:53;;;;;;;19.08;9.57;;;;;;;12.52;69.05;101965.41;5099424;28;20058;-37
2023/03/20 09:58:34;;;;;;;18.27;9.70;;;;;;;12.12;69.30;101963.63;5099998;28;20152;-39
2023/03/20 10:01:03;;;;;;;19.98;10.27;;;;;;;12.31;69.98;101958.81;5102352;28;20035;-41
2023/03/20 10:03:37;;;;;;;20.75;10.68;;;;;;;12.43;69.06;101962.59;5098561;28;20039;-40
2023/03/20 10:06:11;;;;;;;21.23;10.80;;;;;;;12.28;69.61;101958.72;5101933;28;20474;-47
2023/03/20 10:08:38;;;;;;;21.42;11.30;;;;;;;12.66;68.36;101957.00;5100154;28;20119;-39
2023/03/20 10:11:31;;;;;;;23.83;11.73;;;;;;;12.53;68.22;101959.34;5103152;28;20505;-39
2023/03/20 10:13:59;;;;;;;23.10;11.80;;;;;;;12.65;67.75;101958.72;5081436;28;20035;-39
2023/03/20 10:16:36;;;;;;;21.75;11.65;;;;;;;12.86;67.25;101947.84;5099198;28;20040;-37
2023/03/20 10:19:27;;;;;;;23.27;11.80;;;;;;;12.81;67.35;101952.09;5102475;28;20035;-41
2023/03/20 10:22:01;;;;;;;24.83;12.30;;;;;;;12.40;67.83;101951.19;5097985;28;20055;-38
2023/03/20 10:24:41;;;;;;;22.40;11.88;;;;;;;12.41;68.22;101946.00;5101009;28;20031;-39
2023/03/20 10:27:19;;;;;;;22.75;11.48;;;;;;;12.73;67.21;101943.22;5101330;28;20088;-39
2023/03/20 10:30:03;;;;;;;25.27;12.65;;;;;;;12.32;67.98;101948.38;5087107;28;20024;-39
2023/03/20 10:32:37;;;;;;;23.77;12.70;;;;;;;12.00;69.88;101944.13;5101083;28;20043;-41
2023/03/20 10:35:15;;;;;;;23.40;11.60;;;;;;;12.28;68.75;101946.53;5088475;28;20484;-37
2023/03/20 10:37:59;;;;;;;24.52;12.55;;;;;;;12.42;69.13;101939.03;5103414;28;20050;-39
2023/03/20 10:40:31;;;;;;;20.53;11.57;;;;;;;12.38;69.33;101942.44;5103138;28;20024;-37
2023/03/20 10:43:01;;;;;;;23.75;11.88;;;;;;;12.93;68.43;101936.63;5103637;28;20028;-44
2023/03/20 10:45:34;;;;;;;20.67;11.35;;;;;;;13.10;67.35;101929.16;5102382;28;20118;-41
2023/03/20 10:48:05;;;;;;;20.42;11.70;;;;;;;12.89;68.22;101932.19;5105902;28;20032;-38
2023/03/20 10:50:39;;;;;;;23.38;11.57;;;;;;;12.53;68.52;101927.06;5101473;28;20031;-40
2023/03/20 10:53:06;;;;;;;22.17;12.13;;;;;;;12.58;69.48;101930.66;5097722;28;20939;-39
2023/03/20 10:55:39;;;;;;;20.50;12.18;;;;;;;12.58;69.06;101923.69;5086089;28;20470;-41
2023/03/20 10:58:25;;;;;;;21.33;12.82;;;;;;;12.17;70.57;101922.78;5087569;28;20036;-39
2023/03/20 11:00:54;;;;;;;21.20;12.25;;;;;;;12.75;69.65;101918.81;5058151;28;20032;-39
2023/03/20 11:03:23;;;;;;;23.48;12.23;;;;;;;12.61;69.33;101922.91;5079215;28;20028;-41
2023/03/20 11:05:59;;;;;;;23.50;12.18;;;;;;;12.51;69.05;101927.03;5083174;28;20043;-40
2023/03/20 11:08:33;;;;;;;22.55;12.25;;;;;;;12.65;69.64;101919.50;5061097;28;20282;-39
2023/03/20 11:11:00;;;;;;;23.27;11.87;;;;;;;12.78;68.76;101918.91;5082274;28;20419;-43
2023/03/20 11:13:28;;;;;;;23.42;11.88;;;;;;;12.58;69.03;101908.00;5078559;28;20266;-40
2023/03/20 11:15:54;;;;;;;23.85;12.77;;;;;;;13.03;68.10;101912.44;5082554;28;20067;-39
2023/03/20 11:18:24;;;;;;;26.02;12.20;;;;;;;12.94;67.78;101914.84;5079068;28;20031;-39
2023/03/20 11:20:53;;;;;;;23.23;11.90;;;;;;;12.71;68.28;101917.00;5065905;28;20052;-40
2023/03/20 11:23:32;;;;;;;24.55;11.98;;;;;;;12.84;67.44;101913.78;5078020;28;20040;-40